createdAt,value
2024-05-09T00:01:20.547Z,37.26
2024-05-09T00:03:56.542Z,37.66
2024-05-09T00:06:34.374Z,37.55
2024-05-09T00:09:04.654Z,37.40
2024-05-09T00:11:45.179Z,36.65
2024-05-09T00:14:17.846Z,36.08
2024-05-09T00:16:50.663Z,33.79
2024-05-09T00:19:28.605Z,33.31
2024-05-09T00:22:08.877Z,32.56
2024-05-09T00:24:46.509Z,32.39
2024-05-09T00:27:26.668Z,32.05
2024-05-09T00:29:58.744Z,31.77
2024-05-09T00:32:30.326Z,31.81
2024-05-09T00:35:08.207Z,32.08
2024-05-09T00:37:41.445Z,32.61
2024-05-09T00:40:22.461Z,33.10
2024-05-09T00:43:08.931Z,32.17
2024-05-09T00:45:41.924Z,31.57
2024-05-09T00:48:21.393Z,31.93
2024-05-09T00:50:57.898Z,32.20
2024-05-09T00:53:33.989Z,32.42
2024-05-09T00:56:11.852Z,32.17
2024-05-09T00:58:43.895Z,31.18
2024-05-09T01:01:19.143Z,31.09
2024-05-09T01:03:52.615Z,29.53
2024-05-09T01:06:27.736Z,30.18
2024-05-09T01:09:02.845Z,29.96
2024-05-09T01:11:46.499Z,29.86
2024-05-09T01:14:21.012Z,30.47
2024-05-09T01:17:01.276Z,28.83
2024-05-09T01:19:36.119Z,29.41
2024-05-09T01:22:08.019Z,29.58
2024-05-09T01:24:43.418Z,29.93
2024-05-09T01:27:12.443Z,29.42
2024-05-09T01:29:46.886Z,29.99
2024-05-09T01:32:16.574Z,30.70
2024-05-09T01:34:53.564Z,31.35
2024-05-09T01:37:28.636Z,30.96
2024-05-09T01:40:07.316Z,31.35
2024-05-09T01:42:42.222Z,31.29
2024-05-09T01:45:18.541Z,31.27
2024-05-09T01:47:56.035Z,31.23
2024-05-09T01:53:06.240Z,31.02
2024-05-09T01:55:41.636Z,31.12
2024-05-09T01:58:16.432Z,31.36
2024-05-09T02:00:51.041Z,31.42
2024-05-09T02:03:26.858Z,31.50
2024-05-09T02:06:05.118Z,31.60
2024-05-09T02:08:47.908Z,32.05
2024-05-09T02:11:22.762Z,31.32
2024-05-09T02:14:03.130Z,31.38
2024-05-09T02:16:35.821Z,31.23
2024-05-09T02:19:07.897Z,31.88
2024-05-09T02:21:43.347Z,32.19
2024-05-09T02:24:20.293Z,31.87
2024-05-09T02:27:00.896Z,32.47
2024-05-09T02:29:36.258Z,32.46
2024-05-09T02:32:10.723Z,32.01
2024-05-09T02:34:48.358Z,32.19
2024-05-09T02:37:23.430Z,32.49
2024-05-09T02:39:55.455Z,31.73
2024-05-09T02:42:31.043Z,31.61
2024-05-09T02:45:03.413Z,31.96
2024-05-09T02:47:39.058Z,32.21
2024-05-09T02:50:25.972Z,30.76
2024-05-09T02:53:04.682Z,30.50
2024-05-09T02:55:43.421Z,30.57
2024-05-09T02:58:12.690Z,29.57
2024-05-09T03:00:45.357Z,30.09
2024-05-09T03:03:20.722Z,30.18
2024-05-09T03:05:53.095Z,31.00
2024-05-09T03:08:28.162Z,30.97
2024-05-09T03:11:06.782Z,30.99
2024-05-09T03:13:44.705Z,31.42
2024-05-09T03:16:20.398Z,31.57
2024-05-09T03:18:50.638Z,32.36
2024-05-09T03:21:28.560Z,32.43
2024-05-09T03:24:00.611Z,32.57
2024-05-09T03:26:35.199Z,33.02
2024-05-09T03:29:15.979Z,33.06
2024-05-09T03:31:56.858Z,33.39
2024-05-09T03:34:34.587Z,33.46
2024-05-09T03:37:09.755Z,33.46
2024-05-09T03:39:42.128Z,33.86
2024-05-09T03:42:19.512Z,34.05
2024-05-09T03:44:59.243Z,34.16
2024-05-09T03:47:35.377Z,34.06
2024-05-09T03:50:05.924Z,34.03
2024-05-09T03:52:48.065Z,33.76
2024-05-09T03:55:20.982Z,33.65
2024-05-09T03:58:02.983Z,32.67
2024-05-09T04:00:40.043Z,32.41
2024-05-09T04:03:13.406Z,32.91
2024-05-09T04:05:48.494Z,32.80
2024-05-09T04:08:26.763Z,32.67
2024-05-09T04:11:04.085Z,32.70
2024-05-09T04:13:38.821Z,32.93
2024-05-09T04:16:15.287Z,31.99
2024-05-09T04:18:51.084Z,32.21
2024-05-09T04:21:29.427Z,32.17
2024-05-09T04:24:06.587Z,31.44
2024-05-09T04:26:47.274Z,31.24
2024-05-09T04:29:25.556Z,30.85
2024-05-09T04:31:57.659Z,30.57
2024-05-09T04:34:31.353Z,30.74
2024-05-09T04:37:07.079Z,31.21
2024-05-09T04:39:39.376Z,31.06
2024-05-09T04:42:16.291Z,31.31
2024-05-09T04:44:59.535Z,31.42
2024-05-09T04:47:40.410Z,31.79
2024-05-09T04:50:28.935Z,31.83
2024-05-09T04:53:14.912Z,32.03
2024-05-09T04:55:52.369Z,31.40
2024-05-09T04:58:32.602Z,31.62
2024-05-09T05:01:10.442Z,31.33
2024-05-09T05:03:50.606Z,31.38
2024-05-09T05:06:26.303Z,30.96
2024-05-09T05:09:08.443Z,31.10
2024-05-09T05:11:48.536Z,31.06
2024-05-09T05:14:23.443Z,31.99
2024-05-09T05:17:04.397Z,31.74
2024-05-09T05:19:39.896Z,30.89
2024-05-09T05:22:17.624Z,30.91
2024-05-09T05:24:51.804Z,30.89
2024-05-09T05:27:30.925Z,30.11
2024-05-09T05:30:14.676Z,31.19
2024-05-09T05:32:47.918Z,31.22
2024-05-09T05:35:24.299Z,30.46
2024-05-09T05:37:59.678Z,30.42
2024-05-09T05:40:38.344Z,30.50
2024-05-09T05:43:18.908Z,30.00
2024-05-09T05:45:50.836Z,30.86
2024-05-09T05:48:30.853Z,30.35
2024-05-09T05:51:05.846Z,30.65
2024-05-09T05:53:44.861Z,29.87
2024-05-09T05:56:17.192Z,30.10
2024-05-09T05:58:55.482Z,30.60
2024-05-09T06:01:33.505Z,30.03
2024-05-09T06:04:08.852Z,28.34
2024-05-09T06:06:46.519Z,27.90
2024-05-09T06:09:16.411Z,28.69
2024-05-09T06:11:54.185Z,26.33
2024-05-09T06:14:28.942Z,26.05
2024-05-09T06:17:06.950Z,25.83
2024-05-09T06:19:48.789Z,25.48
2024-05-09T06:22:15.763Z,25.17
2024-05-09T06:25:01.503Z,26.20
2024-05-09T06:27:33.807Z,25.35
2024-05-09T06:30:09.880Z,24.58
2024-05-09T06:32:57.573Z,25.12
2024-05-09T06:35:32.066Z,24.21
2024-05-09T06:38:14.603Z,24.13
2024-05-09T06:40:49.654Z,24.23
2024-05-09T06:43:21.911Z,23.88
2024-05-09T06:45:59.939Z,24.28
2024-05-09T06:48:43.157Z,24.49
2024-05-09T06:51:24.167Z,24.30
2024-05-09T06:54:02.497Z,23.53
2024-05-09T06:56:45.988Z,24.55
2024-05-09T06:59:23.419Z,23.75
2024-05-09T07:01:58.262Z,23.57
2024-05-09T07:04:42.345Z,23.15
2024-05-09T07:07:18.436Z,23.18
2024-05-09T07:10:02.386Z,23.33
2024-05-09T07:12:39.858Z,22.22
2024-05-09T07:15:20.059Z,22.68
2024-05-09T07:17:57.933Z,21.87
2024-05-09T07:20:35.892Z,22.22
2024-05-09T07:23:11.822Z,21.21
2024-05-09T07:25:55.783Z,21.16
2024-05-09T07:28:34.367Z,21.02
2024-05-09T07:31:08.804Z,20.90
2024-05-09T07:33:47.096Z,21.47
2024-05-09T07:36:27.784Z,21.33
2024-05-09T07:39:03.114Z,21.71
2024-05-09T07:41:44.056Z,21.21
2024-05-09T07:44:16.442Z,20.76
2024-05-09T07:48:13.366Z,21.25
2024-05-09T07:50:55.820Z,21.31
2024-05-09T07:53:33.541Z,21.87
2024-05-09T07:55:41.424Z,21.08
2024-05-09T07:58:17.405Z,21.70
2024-05-09T08:01:03.031Z,21.61
2024-05-09T08:03:52.412Z,22.51
2024-05-09T08:06:34.700Z,21.76
2024-05-09T08:11:59.186Z,22.25
2024-05-09T08:14:34.647Z,22.57
2024-05-09T08:17:15.351Z,22.29
2024-05-09T08:19:56.191Z,21.67
2024-05-09T08:22:32.226Z,22.00
2024-05-09T08:25:14.268Z,21.99
2024-05-09T08:27:49.762Z,22.20
2024-05-09T08:30:33.490Z,22.21
2024-05-09T08:33:16.655Z,21.89
2024-05-09T08:35:58.378Z,22.52
2024-05-09T08:38:35.378Z,21.75
2024-05-09T08:41:15.507Z,21.53
2024-05-09T08:43:51.925Z,21.54
2024-05-09T08:46:32.091Z,21.48
2024-05-09T08:49:11.318Z,21.55
2024-05-09T08:51:53.314Z,21.89
2024-05-09T08:54:31.353Z,21.94
2024-05-09T08:57:01.932Z,21.75
2024-05-09T08:59:50.781Z,21.61
2024-05-09T09:02:29.902Z,21.53
2024-05-09T09:05:11.224Z,21.70
2024-05-09T09:07:51.410Z,21.78
2024-05-09T09:10:34.949Z,21.60
2024-05-09T09:13:11.400Z,20.98
2024-05-09T09:15:57.645Z,21.71
2024-05-09T09:18:33.521Z,21.62
2024-05-09T09:21:09.839Z,21.34
2024-05-09T09:23:47.239Z,21.18
2024-05-09T09:26:26.351Z,21.25
2024-05-09T09:29:13.563Z,20.97
2024-05-09T09:31:57.285Z,21.67
2024-05-09T09:34:45.055Z,21.39
2024-05-09T09:37:19.383Z,21.16
2024-05-09T09:39:53.030Z,20.92
2024-05-09T09:42:35.338Z,21.01
2024-05-09T09:45:17.120Z,21.11
2024-05-09T09:47:55.587Z,21.04
2024-05-09T09:50:34.568Z,20.68
2024-05-09T09:53:12.885Z,20.88
2024-05-09T09:55:55.923Z,21.05
2024-05-09T09:58:33.443Z,21.05
2024-05-09T10:01:13.331Z,21.11
2024-05-09T10:03:55.567Z,20.59
2024-05-09T10:06:32.206Z,21.05
2024-05-09T10:09:07.381Z,20.90
2024-05-09T10:11:51.864Z,21.31
2024-05-09T10:14:34.632Z,20.86
2024-05-09T10:17:17.784Z,20.63
2024-05-09T10:19:56.867Z,20.74
2024-05-09T10:22:35.735Z,20.79
2024-05-09T10:25:19.467Z,20.86
2024-05-09T10:28:01.121Z,20.75
2024-05-09T10:30:43.174Z,20.45
2024-05-09T10:33:26.397Z,21.12
2024-05-09T10:36:04.980Z,20.79
2024-05-09T10:38:58.486Z,20.68
2024-05-09T10:41:37.764Z,20.72
2024-05-09T10:44:18.447Z,21.25
2024-05-09T10:47:01.753Z,20.58
2024-05-09T10:49:38.787Z,20.48
2024-05-09T10:52:15.080Z,20.64
2024-05-09T10:54:54.432Z,20.16
2024-05-09T10:57:43.248Z,20.38
2024-05-09T11:00:33.776Z,20.80
2024-05-09T11:03:16.611Z,20.65
2024-05-09T11:06:01.164Z,20.10
2024-05-09T11:08:41.915Z,20.41
2024-05-09T11:11:22.011Z,20.11
2024-05-09T11:14:16.302Z,19.88
2024-05-09T11:17:06.220Z,20.43
2024-05-09T11:19:46.747Z,19.75
2024-05-09T11:22:21.484Z,19.68
2024-05-09T11:25:05.393Z,19.68
2024-05-09T11:27:44.396Z,19.90
2024-05-09T11:30:34.651Z,19.70
2024-05-09T11:33:13.965Z,20.03
2024-05-09T11:35:57.262Z,19.01
2024-05-09T11:38:35.114Z,19.99
2024-05-09T11:41:22.515Z,19.37
2024-05-09T11:44:00.880Z,19.77
2024-05-09T11:46:39.429Z,19.57
2024-05-09T11:49:25.346Z,19.63
2024-05-09T11:52:01.287Z,19.58
2024-05-09T11:54:45.158Z,19.55
2024-05-09T11:57:23.311Z,19.43
2024-05-09T12:00:04.270Z,19.54
2024-05-09T12:02:41.834Z,18.83
2024-05-09T12:05:19.727Z,19.65
2024-05-09T12:07:56.364Z,19.51
2024-05-09T12:10:42.939Z,19.59
2024-05-09T12:13:31.577Z,19.49
2024-05-09T12:16:11.833Z,19.14
2024-05-09T12:18:47.403Z,19.42
2024-05-09T12:21:33.802Z,19.21
2024-05-09T12:24:18.353Z,19.72
2024-05-09T12:27:08.150Z,19.56
2024-05-09T12:29:43.684Z,19.96
2024-05-09T12:32:21.366Z,18.92
2024-05-09T12:35:03.373Z,19.14
2024-05-09T12:37:41.843Z,18.93
2024-05-09T12:40:26.243Z,18.57
2024-05-09T12:43:20.372Z,18.72
2024-05-09T12:46:03.922Z,18.72
2024-05-09T12:48:49.609Z,18.76
2024-05-09T12:51:36.788Z,18.07
2024-05-09T12:54:12.611Z,18.26
2024-05-09T12:56:41.833Z,17.91
2024-05-09T12:59:22.368Z,18.24
2024-05-09T13:02:02.058Z,18.55
2024-05-09T13:04:42.216Z,18.56
2024-05-09T13:07:21.132Z,18.93
2024-05-09T13:10:02.186Z,18.73
2024-05-09T13:12:39.868Z,18.53
2024-05-09T13:15:20.045Z,19.40
2024-05-09T13:17:58.110Z,18.65
2024-05-09T13:20:38.664Z,18.34
2024-05-09T13:23:14.033Z,18.38
2024-05-09T13:25:52.260Z,18.61
2024-05-09T13:28:29.258Z,18.07
2024-05-09T13:31:10.423Z,18.44
2024-05-09T13:33:48.820Z,18.15
2024-05-09T13:36:29.314Z,18.23
2024-05-09T13:39:13.714Z,18.69
2024-05-09T13:41:46.344Z,18.39
2024-05-09T13:44:30.207Z,19.25
2024-05-09T13:47:14.803Z,18.31
2024-05-09T13:49:51.852Z,18.68
2024-05-09T13:52:32.460Z,18.61
2024-05-09T13:55:12.960Z,18.61
2024-05-09T13:57:51.069Z,18.30
2024-05-09T14:00:41.991Z,18.30
2024-05-09T14:03:24.638Z,18.37
2024-05-09T14:06:02.711Z,18.71
2024-05-09T14:08:37.095Z,18.39
2024-05-09T14:11:23.492Z,18.32
2024-05-09T14:13:58.293Z,18.88
2024-05-09T14:16:42.499Z,19.23
2024-05-09T14:19:25.497Z,18.45
2024-05-09T14:21:56.864Z,18.21
2024-05-09T14:24:36.421Z,18.68
2024-05-09T14:27:18.556Z,19.01
2024-05-09T14:29:54.617Z,18.28
2024-05-09T14:32:32.522Z,18.25
2024-05-09T14:35:15.670Z,18.26
2024-05-09T14:37:53.671Z,18.26
2024-05-09T14:40:41.828Z,17.85
2024-05-09T14:43:24.914Z,19.06
2024-05-09T14:45:57.696Z,18.47
2024-05-09T14:48:42.865Z,18.43
2024-05-09T14:51:20.790Z,19.17
2024-05-09T14:54:01.620Z,19.00
2024-05-09T14:56:41.906Z,19.05
2024-05-09T14:59:15.423Z,18.82
2024-05-09T15:01:49.911Z,18.57
2024-05-09T15:04:35.781Z,18.45
2024-05-09T15:07:14.184Z,18.52
2024-05-09T15:09:56.134Z,19.34
2024-05-09T15:12:30.731Z,18.48
2024-05-09T15:15:05.621Z,18.77
2024-05-09T15:17:43.343Z,18.35
2024-05-09T15:20:20.237Z,19.24
2024-05-09T15:23:01.389Z,18.46
2024-05-09T15:25:44.770Z,18.68
2024-05-09T15:28:26.452Z,18.46
2024-05-09T15:31:10.243Z,18.38
2024-05-09T15:33:43.328Z,18.17
2024-05-09T15:36:22.214Z,18.29
2024-05-09T15:39:00.092Z,18.11
2024-05-09T15:41:43.112Z,18.94
2024-05-09T15:44:19.392Z,18.28
2024-05-09T15:47:02.297Z,18.25
2024-05-09T15:49:42.942Z,18.71
2024-05-09T15:52:22.423Z,18.55
2024-05-09T15:54:59.898Z,18.81
2024-05-09T15:57:34.379Z,18.07
2024-05-09T16:00:24.667Z,17.79
2024-05-09T16:03:05.311Z,17.48
2024-05-09T16:05:47.120Z,17.51
2024-05-09T16:08:28.839Z,18.02
2024-05-09T16:11:07.027Z,17.76
2024-05-09T16:13:38.996Z,17.68
2024-05-09T16:16:23.399Z,17.59
2024-05-09T16:18:59.385Z,17.05
2024-05-09T16:21:31.694Z,17.28
2024-05-09T16:24:01.638Z,18.51
2024-05-09T16:26:39.177Z,17.79
2024-05-09T16:29:14.075Z,17.87
2024-05-09T16:31:44.594Z,17.90
2024-05-09T16:34:22.606Z,18.39
2024-05-09T16:37:00.345Z,17.61
2024-05-09T16:39:40.609Z,17.99
2024-05-09T16:42:10.727Z,17.39
2024-05-09T16:44:45.350Z,17.84
2024-05-09T16:47:17.303Z,17.59
2024-05-09T16:49:52.383Z,18.16
2024-05-09T16:52:30.024Z,17.85
2024-05-09T16:55:10.062Z,18.46
2024-05-09T16:57:50.834Z,17.95
2024-05-09T17:00:40.002Z,18.24
2024-05-09T17:03:23.689Z,17.41
2024-05-09T17:05:56.472Z,17.33
2024-05-09T17:08:34.124Z,18.10
2024-05-09T17:11:14.951Z,17.74
2024-05-09T17:13:48.112Z,18.12
2024-05-09T17:16:18.225Z,18.28
2024-05-09T17:18:59.431Z,18.63
2024-05-09T17:21:40.153Z,18.52
2024-05-09T17:24:15.506Z,19.10
2024-05-09T17:26:57.620Z,18.88
2024-05-09T17:29:32.814Z,19.10
2024-05-09T17:32:13.797Z,20.28
2024-05-09T17:34:51.757Z,20.61
2024-05-09T17:37:31.196Z,21.33
2024-05-09T17:40:16.853Z,21.49
2024-05-09T17:42:52.696Z,21.57
2024-05-09T17:45:30.990Z,21.79
2024-05-09T17:48:06.455Z,22.09
2024-05-09T17:50:44.756Z,22.32
2024-05-09T17:53:21.540Z,22.65
2024-05-09T17:56:01.582Z,22.62
2024-05-09T17:58:39.230Z,22.52
2024-05-09T18:01:14.040Z,22.58
2024-05-09T18:03:46.169Z,23.22
2024-05-09T18:06:24.079Z,23.01
2024-05-09T18:08:59.233Z,23.33
2024-05-09T18:11:36.364Z,23.58
2024-05-09T18:14:13.722Z,23.68
2024-05-09T18:16:54.360Z,23.73
2024-05-09T18:19:29.307Z,23.68
2024-05-09T18:22:08.473Z,23.78
2024-05-09T18:24:46.115Z,23.64
2024-05-09T18:27:22.020Z,23.77
2024-05-09T18:29:57.067Z,23.89
2024-05-09T18:32:32.176Z,23.75
2024-05-09T18:35:10.643Z,23.84
2024-05-09T18:37:44.970Z,24.13
2024-05-09T18:40:31.034Z,23.94
2024-05-09T18:43:05.162Z,24.30
2024-05-09T18:45:41.154Z,23.55
2024-05-09T18:48:21.830Z,23.85
2024-05-09T18:50:53.452Z,22.77
2024-05-09T18:53:28.244Z,23.40
2024-05-09T18:56:05.000Z,23.52
2024-05-09T18:58:34.213Z,23.84
2024-05-09T19:01:11.718Z,23.41
2024-05-09T19:03:50.282Z,24.05
2024-05-09T19:06:31.354Z,24.51
2024-05-09T19:09:01.587Z,25.33
2024-05-09T19:11:31.561Z,26.35
2024-05-09T19:14:04.607Z,26.42
2024-05-09T19:16:39.834Z,27.02
2024-05-09T19:19:13.818Z,27.31
2024-05-09T19:21:47.024Z,27.21
2024-05-09T19:24:22.926Z,27.24
2024-05-09T19:26:58.245Z,27.25
2024-05-09T19:29:35.802Z,27.35
2024-05-09T19:32:18.587Z,27.29
2024-05-09T19:35:00.894Z,27.39
2024-05-09T19:37:36.705Z,27.83
2024-05-09T19:40:24.727Z,27.96
2024-05-09T19:43:06.905Z,28.63
2024-05-09T19:45:53.800Z,28.69
2024-05-09T19:48:29.019Z,29.39
2024-05-09T19:51:03.715Z,29.24
2024-05-09T19:53:41.585Z,29.17
2024-05-09T19:56:16.775Z,29.55
2024-05-09T19:58:51.742Z,29.18
2024-05-09T20:01:29.163Z,29.92
2024-05-09T20:04:06.937Z,29.62
2024-05-09T20:06:37.219Z,29.77
2024-05-09T20:09:15.136Z,29.73
2024-05-09T20:11:52.895Z,29.62
2024-05-09T20:14:33.453Z,29.58
2024-05-09T20:17:08.715Z,29.31
2024-05-09T20:19:44.882Z,29.53
2024-05-09T20:22:20.343Z,29.32
2024-05-09T20:24:58.459Z,29.86
2024-05-09T20:27:35.894Z,30.04
2024-05-09T20:30:14.419Z,29.73
2024-05-09T20:32:54.382Z,30.25
2024-05-09T20:35:27.032Z,30.12
2024-05-09T20:38:07.940Z,30.40
2024-05-09T20:40:41.591Z,30.19
2024-05-09T20:43:19.824Z,30.24
2024-05-09T20:45:58.032Z,30.28
2024-05-09T20:48:35.905Z,30.26
2024-05-09T20:51:11.072Z,30.03
2024-05-09T20:53:45.996Z,30.06
2024-05-09T20:56:38.373Z,30.19
2024-05-09T20:59:15.585Z,30.80
2024-05-09T21:01:56.231Z,30.67
2024-05-09T21:04:31.908Z,31.20
2024-05-09T21:07:07.572Z,31.48
2024-05-09T21:09:47.840Z,31.57
2024-05-09T21:12:26.321Z,31.59
2024-05-09T21:15:01.280Z,31.66
2024-05-09T21:17:35.720Z,31.30
2024-05-09T21:20:17.502Z,31.30
2024-05-09T21:23:01.586Z,31.04
2024-05-09T21:25:41.827Z,31.43
2024-05-09T21:28:19.948Z,31.35
2024-05-09T21:31:00.492Z,31.32
2024-05-09T21:33:36.553Z,31.88
2024-05-09T21:36:15.040Z,31.90
2024-05-09T21:38:47.605Z,31.43
2024-05-09T21:41:24.636Z,31.53
2024-05-09T21:44:02.431Z,31.69
2024-05-09T21:46:40.507Z,31.99
2024-05-09T21:49:18.725Z,32.29
2024-05-09T21:51:56.264Z,32.03
2024-05-09T21:54:30.646Z,32.21
2024-05-09T21:57:10.933Z,31.98
2024-05-09T21:59:48.059Z,32.01
2024-05-09T22:02:28.352Z,32.67
2024-05-09T22:05:09.262Z,31.92
2024-05-09T22:07:47.555Z,32.00
2024-05-09T22:10:34.378Z,32.43
2024-05-09T22:13:09.505Z,32.32
2024-05-09T22:15:43.933Z,32.29
2024-05-09T22:18:24.217Z,32.08
2024-05-09T22:21:04.913Z,32.47
2024-05-09T22:23:40.543Z,32.76
2024-05-09T22:26:21.317Z,32.68
2024-05-09T22:28:54.294Z,32.56
2024-05-09T22:31:32.265Z,32.51
2024-05-09T22:34:05.743Z,33.13
2024-05-09T22:36:40.510Z,32.91
2024-05-09T22:39:17.681Z,33.04
2024-05-09T22:41:55.327Z,33.89
2024-05-09T22:44:31.328Z,33.46
2024-05-09T22:47:03.747Z,33.90
2024-05-09T22:49:33.978Z,33.61
2024-05-09T22:52:14.924Z,33.67
2024-05-09T22:54:53.290Z,33.32
2024-05-09T22:57:26.401Z,33.54
2024-05-09T23:00:05.057Z,33.57
2024-05-09T23:02:44.130Z,33.71
2024-05-09T23:05:19.630Z,33.71
2024-05-09T23:07:56.371Z,33.48
2024-05-09T23:10:35.068Z,33.50
2024-05-09T23:13:12.709Z,33.66
2024-05-09T23:15:55.271Z,33.63
2024-05-09T23:18:34.126Z,33.20
2024-05-09T23:21:11.938Z,33.16
2024-05-09T23:23:47.611Z,33.53
2024-05-09T23:26:22.849Z,34.01
2024-05-09T23:29:03.754Z,34.03
2024-05-09T23:31:44.558Z,33.83
2024-05-09T23:34:17.751Z,34.10
2024-05-09T23:36:52.669Z,33.92
2024-05-09T23:39:27.293Z,33.48
2024-05-09T23:42:02.985Z,34.03
2024-05-09T23:44:38.028Z,34.06
2024-05-09T23:47:16.348Z,33.79
2024-05-09T23:49:53.844Z,33.69
2024-05-09T23:52:28.671Z,33.42
2024-05-09T23:55:09.666Z,33.61
2024-05-09T23:57:47.735Z,34.05
